Time;durP1;ratioP1;P1;durP2;ratioP2;P2;SDS_P1;SDS_P2;PMS_P1;PMS_P2;Temp;Humidity;BMP_temperature;BMP_pressure;BME280_temperature;BME280_humidity;BME280_pressure;Samples;Min_cycle;Max_cycle;Signal;HPM_P1;HPM_P2
2023/03/06 00:00:59;;;;;;;0.80;0.80;;;4.40;65.00;;;3.91;49.31;94079.47;5115103;28;20560;-21
2023/03/06 00:03:27;;;;;;;0.70;0.70;;;4.40;64.80;;;3.89;49.35;94084.03;5115404;28;20182;-18
2023/03/06 00:05:56;;;;;;;0.70;0.70;;;4.40;64.70;;;3.85;48.81;94080.97;5131188;28;20194;-18
2023/03/06 00:08:26;;;;;;;0.80;0.80;;;4.40;64.60;;;3.90;49.11;94080.44;5115027;28;20190;-19
2023/03/06 00:10:55;;;;;;;0.70;0.70;;;4.40;64.70;;;3.87;48.52;94076.41;5114742;28;20281;-18
2023/03/06 00:13:22;;;;;;;0.70;0.70;;;4.40;64.40;;;3.93;48.71;94072.31;5114978;28;20247;-18
2023/03/06 00:15:49;;;;;;;0.70;0.70;;;4.40;64.50;;;3.95;48.96;94067.78;5114810;28;20194;-19
2023/03/06 00:18:16;;;;;;;0.70;0.70;;;4.40;64.60;;;3.97;49.00;94073.59;5114951;28;20622;-18
2023/03/06 00:20:43;;;;;;;0.60;0.60;;;4.40;64.60;;;3.99;49.29;94075.03;5115227;28;20194;-20
2023/03/06 00:23:12;;;;;;;0.70;0.70;;;4.40;64.60;;;4.00;48.87;94070.66;5114918;28;20661;-19
2023/03/06 00:25:44;;;;;;;0.60;0.60;;;4.40;64.60;;;4.00;49.08;94068.06;5115111;28;20502;-19
2023/03/06 00:28:13;;;;;;;0.68;0.68;;;4.40;64.60;;;3.99;49.10;94063.84;5115177;28;20175;-18
2023/03/06 00:30:41;;;;;;;0.80;0.80;;;4.40;64.50;;;3.98;49.05;94059.66;5114813;28;20264;-19
2023/03/06 00:33:08;;;;;;;0.77;0.77;;;4.40;64.50;;;4.02;48.99;94063.50;5114721;28;20371;-19
2023/03/06 00:35:38;;;;;;;0.60;0.60;;;4.40;64.50;;;4.02;48.94;94066.09;5114625;28;20193;-18
2023/03/06 00:38:05;;;;;;;0.70;0.70;;;4.40;64.40;;;4.02;48.92;94060.91;5132690;27;20218;-18
2023/03/06 00:40:33;;;;;;;0.60;0.60;;;4.40;64.40;;;4.00;48.88;94053.31;5118375;28;20273;-19
2023/03/06 00:43:00;;;;;;;0.68;0.68;;;4.40;64.40;;;4.01;48.98;94048.91;5118624;28;20512;-18
2023/03/06 00:45:27;;;;;;;0.70;0.70;;;4.40;64.50;;;4.07;48.95;94060.41;5118160;28;20194;-20
2023/03/06 00:47:54;;;;;;;0.60;0.60;;;4.40;64.50;;;4.08;48.97;94054.25;5118265;28;20566;-18
2023/03/06 00:50:21;;;;;;;0.57;0.57;;;4.40;64.60;;;4.07;49.21;94056.00;5118247;28;20198;-18
2023/03/06 00:52:48;;;;;;;0.70;0.70;;;4.40;64.60;;;4.05;48.34;94054.56;5118474;28;20245;-20
2023/03/06 00:55:15;;;;;;;0.68;0.68;;;4.40;64.20;;;4.04;48.72;94043.41;5134390;27;20563;-18
2023/03/06 00:57:42;;;;;;;0.70;0.70;;;4.40;64.30;;;4.02;48.55;94042.75;5118097;28;20222;-20
2023/03/06 01:00:12;;;;;;;0.70;0.70;;;4.40;64.40;;;4.04;48.67;94042.56;5117994;28;20558;-18
2023/03/06 01:02:39;;;;;;;0.70;0.70;;;4.40;64.40;;;4.06;48.88;94041.41;5117044;28;20206;-19
2023/03/06 01:05:07;;;;;;;0.60;0.60;;;4.40;64.30;;;4.03;48.79;94038.34;5117076;28;20213;-18
2023/03/06 01:07:36;;;;;;;0.60;0.60;;;4.40;64.40;;;4.01;48.12;94034.16;5133970;27;20205;-20
2023/03/06 01:10:06;;;;;;;0.70;0.70;;;4.40;64.20;;;3.99;48.58;94038.72;5117862;28;20194;-19
2023/03/06 01:12:34;;;;;;;0.80;0.80;;;4.40;64.20;;;3.99;48.75;94037.91;5117786;28;20255;-19
2023/03/06 01:15:01;;;;;;;0.77;0.77;;;4.40;64.30;;;4.00;48.52;94034.31;5117675;27;20194;-19
2023/03/06 01:17:28;;;;;;;0.70;0.70;;;4.40;64.30;;;3.99;48.87;94023.16;5117557;28;20186;-18
2023/03/06 01:19:56;;;;;;;0.70;0.70;;;4.40;64.50;;;3.97;48.90;94019.13;5117912;28;20213;-19
2023/03/06 01:22:23;;;;;;;0.60;0.60;;;4.40;64.50;;;4.00;48.87;94023.94;5117692;28;20186;-19
2023/03/06 01:24:51;;;;;;;0.73;0.73;;;4.40;64.50;;;4.04;49.08;94019.22;5133616;27;20230;-18
2023/03/06 01:27:20;;;;;;;0.70;0.70;;;4.40;64.60;;;4.01;49.17;94017.78;5117383;28;20197;-18
2023/03/06 01:29:47;;;;;;;0.70;0.70;;;4.40;64.70;;;4.01;49.29;94010.00;5117763;28;20194;-18
2023/03/06 01:32:14;;;;;;;0.70;0.70;;;4.40;64.70;;;3.99;49.22;93999.81;5117295;28;20687;-18
2023/03/06 01:34:41;;;;;;;0.70;0.70;;;4.30;64.60;;;4.02;48.84;94003.84;5117365;27;20182;-18
2023/03/06 01:37:08;;;;;;;0.70;0.70;;;4.30;64.60;;;4.00;49.04;94003.19;5117168;28;20537;-18
2023/03/06 01:39:35;;;;;;;0.60;0.60;;;4.30;64.60;;;3.98;49.36;93998.19;5117262;28;20188;-18
2023/03/06 01:42:03;;;;;;;0.70;0.70;;;4.30;64.70;;;3.98;49.12;94000.78;5117225;28;20206;-18
2023/03/06 01:44:30;;;;;;;0.50;0.50;;;4.30;64.70;;;3.98;49.20;93992.19;5117132;28;20217;-19
2023/03/06 01:47:01;;;;;;;0.70;0.70;;;4.30;64.50;;;3.95;48.83;93984.75;5117104;28;20194;-18
2023/03/06 01:49:39;;;;;;;0.60;0.60;;;4.30;64.60;;;3.87;48.25;93988.22;5117316;28;20182;-18
2023/03/06 01:52:11;;;;;;;0.70;0.70;;;4.30;64.20;;;3.91;48.69;93988.69;5116313;28;20300;-19
2023/03/06 01:54:47;;;;;;;0.80;0.80;;;4.30;64.20;;;3.84;48.68;93986.78;5117612;28;20205;-19
2023/03/06 01:57:34;;;;;;;0.85;0.85;;;4.30;64.10;;;3.85;48.33;93980.59;5116143;27;20192;-19
2023/03/06 02:00:08;;;;;;;0.80;0.80;;;4.20;64.20;;;3.87;48.50;93979.63;5133080;27;20273;-19
2023/03/06 02:02:55;;;;;;;0.70;0.70;;;4.20;64.20;;;3.84;48.58;93975.59;5100169;28;20593;-19
2023/03/06 02:05:23;;;;;;;0.70;0.70;;;4.20;64.10;;;3.84;48.40;93975.59;5116766;28;20178;-19
2023/03/06 02:07:52;;;;;;;0.70;0.70;;;4.20;64.00;;;3.83;48.49;93973.97;5132729;27;20224;-19
2023/03/06 02:10:20;;;;;;;0.60;0.60;;;4.20;64.10;;;3.83;48.45;93972.19;5115798;28;20194;-18
2023/03/06 02:12:50;;;;;;;0.80;0.80;;;4.30;64.20;;;3.83;48.24;93972.19;5116697;28;20210;-18
2023/03/06 02:15:21;;;;;;;0.80;0.80;;;4.20;64.00;;;3.80;48.22;93963.94;5098858;28;20227;-18
2023/03/06 02:17:50;;;;;;;0.70;0.70;;;4.20;64.00;;;3.81;47.87;93970.75;5116430;28;20224;-18
2023/03/06 02:20:34;;;;;;;0.70;0.70;;;4.20;63.90;;;3.78;48.18;93958.91;5132636;27;20194;-19
2023/03/06 02:23:12;;;;;;;0.70;0.70;;;4.20;63.90;;;3.77;47.81;93952.13;5115642;28;20189;-19
2023/03/06 02:25:49;;;;;;;0.80;0.80;;;4.20;63.90;;;3.77;48.36;93952.13;5115545;28;20594;-19
2023/03/06 02:28:21;;;;;;;0.60;0.60;;;4.20;64.00;;;3.72;47.94;93948.44;5116579;27;20193;-19
2023/03/06 02:30:52;;;;;;;0.70;0.70;;;4.20;63.70;;;3.70;47.69;93953.81;5132508;27;20328;-19
2023/03/06 02:33:26;;;;;;;0.70;0.70;;;4.20;63.80;;;3.70;48.18;93951.22;5132310;27;20210;-18
2023/03/06 02:36:03;;;;;;;0.70;0.70;;;4.20;63.80;;;3.72;48.46;93944.06;5132208;27;20186;-18
2023/03/06 02:38:42;;;;;;;0.60;0.60;;;4.20;63.90;;;3.74;48.17;93947.28;5116447;27;20264;-18
2023/03/06 02:41:10;;;;;;;0.70;0.70;;;4.20;63.90;;;3.73;48.24;93943.06;5116466;27;20269;-18
2023/03/06 02:43:39;;;;;;;0.70;0.70;;;4.10;63.90;;;3.72;48.12;93938.88;5116312;28;20194;-19
2023/03/06 02:46:06;;;;;;;0.70;0.70;;;4.20;63.90;;;3.75;48.26;93932.53;5115294;28;20327;-19
2023/03/06 02:48:34;;;;;;;0.70;0.70;;;4.10;63.90;;;3.76;48.30;93931.53;5132221;27;20201;-19
2023/03/06 02:51:01;;;;;;;0.68;0.68;;;4.10;63.90;;;3.79;48.42;93942.38;5115886;28;20664;-19
2023/03/06 02:53:28;;;;;;;0.70;0.70;;;4.10;64.00;;;3.76;48.40;93932.38;5115624;28;20301;-19
2023/03/06 02:55:58;;;;;;;0.70;0.70;;;4.10;64.10;;;3.75;48.14;93935.13;5132053;27;20226;-19
2023/03/06 02:58:25;;;;;;;0.70;0.70;;;4.10;64.00;;;3.77;48.61;93922.78;5131931;27;20706;-18
2023/03/06 03:00:52;;;;;;;0.80;0.80;;;4.10;64.10;;;3.73;48.30;93930.09;5114319;27;20185;-18
2023/03/06 03:03:20;;;;;;;0.70;0.70;;;4.10;64.20;;;3.75;49.20;93930.75;5114751;28;20586;-19
2023/03/06 03:05:47;;;;;;;0.70;0.70;;;4.10;64.30;;;3.73;48.81;93919.72;5115718;28;20514;-18
2023/03/06 03:08:21;;;;;;;0.73;0.73;;;4.10;64.30;;;3.74;48.86;93923.16;5114590;28;20539;-18
2023/03/06 03:10:54;;;;;;;0.80;0.80;;;4.10;64.30;;;3.73;49.06;93927.50;5114848;28;20363;-19
2023/03/06 03:13:22;;;;;;;0.75;0.75;;;4.10;64.30;;;3.72;48.85;93920.72;5131733;27;20257;-19
2023/03/06 03:16:05;;;;;;;0.70;0.70;;;4.10;64.40;;;3.63;48.50;93921.78;5114630;28;20668;-19
2023/03/06 03:18:33;;;;;;;0.70;0.70;;;4.20;64.40;;;3.62;48.45;93925.34;5098051;28;20243;-19
2023/03/06 03:21:05;;;;;;;0.70;0.70;;;4.10;64.20;;;3.61;48.53;93921.91;5131673;27;20200;-19
2023/03/06 03:23:32;;;;;;;0.70;0.70;;;4.10;64.20;;;3.63;48.85;93914.00;5114380;28;20245;-18
2023/03/06 03:26:08;;;;;;;0.80;0.80;;;4.00;64.10;;;3.66;48.56;93918.81;5115742;28;20497;-18
2023/03/06 03:28:37;;;;;;;0.73;0.73;;;4.00;64.20;;;3.64;48.46;93915.59;5114463;28;20198;-18
2023/03/06 03:31:08;;;;;;;0.90;0.90;;;4.00;64.20;;;3.60;48.24;93912.56;5115697;27;20565;-18
2023/03/06 03:33:35;;;;;;;0.80;0.80;;;4.10;64.10;;;3.62;48.31;93920.16;5114662;28;20660;-19
2023/03/06 03:36:05;;;;;;;0.70;0.70;;;4.00;64.00;;;3.62;48.62;93912.38;5131505;28;20262;-19
2023/03/06 03:38:36;;;;;;;0.63;0.63;;;4.00;64.00;;;3.64;48.60;93907.81;5114301;28;20186;-18
2023/03/06 03:41:04;;;;;;;0.70;0.70;;;4.00;64.10;;;3.61;48.59;93908.97;5131444;28;20193;-18
2023/03/06 03:43:32;;;;;;;0.80;0.80;;;4.00;64.10;;;3.62;48.61;93904.59;5115128;28;20213;-19
2023/03/06 03:46:00;;;;;;;0.80;0.80;;;4.00;64.20;;;3.63;48.89;93912.19;5114337;28;20224;-19
2023/03/06 03:48:28;;;;;;;0.80;0.80;;;4.10;64.20;;;3.62;48.80;93897.59;5115095;27;20560;-19
2023/03/06 03:51:05;;;;;;;0.68;0.68;;;4.00;64.20;;;3.63;48.72;93899.22;5131431;28;20591;-18
2023/03/06 03:53:34;;;;;;;0.70;0.70;;;4.00;64.20;;;3.58;47.94;93893.75;5131332;28;20221;-18
2023/03/06 03:56:02;;;;;;;0.80;0.80;;;4.10;63.90;;;3.53;48.01;93891.69;5097462;28;20194;-18
2023/03/06 03:58:32;;;;;;;0.80;0.80;;;4.00;63.70;;;3.50;47.94;93884.28;5114037;28;20201;-19
2023/03/06 04:00:59;;;;;;;0.70;0.70;;;4.00;63.60;;;3.53;47.98;93878.72;5114173;28;20285;-18
2023/03/06 04:03:27;;;;;;;0.70;0.70;;;4.00;63.70;;;3.52;48.19;93864.16;5114152;27;20222;-18
2023/03/06 04:05:56;;;;;;;0.80;0.80;;;4.00;63.80;;;3.52;48.30;93871.91;5097467;28;20217;-19
2023/03/06 04:08:26;;;;;;;0.70;0.70;;;4.00;63.80;;;3.54;48.29;93869.19;5098126;28;20186;-18
2023/03/06 04:10:53;;;;;;;0.60;0.60;;;4.00;63.90;;;3.56;48.42;93863.81;5097196;28;20263;-19
2023/03/06 04:13:22;;;;;;;0.80;0.80;;;4.00;63.90;;;3.57;48.54;93857.66;5099115;28;20256;-18
2023/03/06 04:15:52;;;;;;;0.80;0.80;;;4.00;64.00;;;3.56;48.69;93858.63;5135073;27;20285;-19
2023/03/06 04:18:22;;;;;;;0.80;0.80;;;4.00;64.10;;;3.50;49.09;93858.34;5135020;27;20638;-18
2023/03/06 04:20:51;;;;;;;0.77;0.77;;;4.00;65.10;;;3.48;49.01;93860.28;5101211;28;20237;-19
2023/03/06 04:23:19;;;;;;;0.80;0.80;;;4.00;64.20;;;3.48;48.94;93862.88;5134970;27;20283;-19
2023/03/06 04:25:46;;;;;;;0.70;0.70;;;4.00;64.20;;;3.51;49.06;93853.97;5117758;27;20202;-19
2023/03/06 04:28:13;;;;;;;0.63;0.63;;;4.00;64.10;;;3.51;49.10;93853.97;5134698;27;20300;-18
2023/03/06 04:30:41;;;;;;;0.80;0.80;;;4.00;64.20;;;3.50;49.21;93858.34;5134780;27;20592;-18
2023/03/06 04:33:08;;;;;;;0.63;0.63;;;4.00;64.10;;;3.50;48.72;93858.34;5134927;27;20267;-19
2023/03/06 04:35:36;;;;;;;0.70;0.70;;;4.00;64.10;;;3.49;48.94;93848.13;5117616;28;20190;-19
2023/03/06 04:38:08;;;;;;;0.80;0.80;;;4.00;64.00;;;3.48;48.99;93849.13;5118804;27;20526;-18
2023/03/06 04:40:36;;;;;;;0.80;0.80;;;4.00;64.00;;;3.46;49.02;93841.50;5117514;28;20243;-20
2023/03/06 04:43:03;;;;;;;0.68;0.68;;;4.00;64.10;;;3.49;48.78;93851.53;5118387;28;20282;-18
2023/03/06 04:45:32;;;;;;;0.70;0.70;;;4.00;64.10;;;3.52;48.95;93848.59;5118390;28;20201;-19
2023/03/06 04:48:00;;;;;;;0.60;0.60;;;4.00;64.20;;;3.51;48.90;93846.97;5118297;28;20186;-18
2023/03/06 04:50:31;;;;;;;0.70;0.70;;;3.90;64.20;;;3.54;49.06;93840.66;5118248;28;20633;-18
2023/03/06 04:53:03;;;;;;;0.73;0.73;;;4.00;64.20;;;3.52;49.04;93829.66;5118167;28;20209;-18
2023/03/06 04:55:30;;;;;;;0.80;0.80;;;4.00;65.10;;;3.56;48.65;93833.50;5117916;28;20186;-18
2023/03/06 04:57:57;;;;;;;0.80;0.80;;;4.00;64.20;;;3.54;48.52;93827.69;5118112;28;20182;-19
2023/03/06 05:00:30;;;;;;;0.80;0.80;;;4.00;64.20;;;3.57;49.02;93835.09;5118077;28;20182;-19
2023/03/06 05:02:59;;;;;;;0.77;0.77;;;4.00;64.20;;;3.57;48.64;93829.91;5118623;28;20273;-19
2023/03/06 05:05:27;;;;;;;0.70;0.70;;;4.00;64.20;;;3.57;48.86;93837.69;5117919;28;20204;-18
2023/03/06 05:07:56;;;;;;;0.80;0.80;;;4.00;64.20;;;3.57;48.85;93822.13;5118633;28;20194;-18
2023/03/06 05:10:23;;;;;;;0.60;0.60;;;3.90;64.30;;;3.56;48.70;93820.53;5117873;28;20254;-19
2023/03/06 05:12:50;;;;;;;0.73;0.73;;;4.00;64.30;;;3.59;48.83;93814.19;5117755;28;20237;-19
2023/03/06 05:15:17;;;;;;;0.70;0.70;;;4.00;64.40;;;3.59;48.85;93821.97;5118039;28;20190;-19
2023/03/06 05:17:46;;;;;;;0.80;0.80;;;4.00;64.30;;;3.58;48.91;93821.16;5117637;28;20182;-18
2023/03/06 05:20:14;;;;;;;0.70;0.70;;;4.00;64.30;;;3.56;48.94;93814.56;5117665;28;20251;-18
2023/03/06 05:22:41;;;;;;;0.80;0.80;;;4.00;64.40;;;3.57;48.79;93819.56;5117863;28;20507;-19
2023/03/06 05:25:09;;;;;;;0.50;0.50;;;4.00;64.40;;;3.57;49.10;93818.75;5116968;27;20673;-18
2023/03/06 05:27:37;;;;;;;0.80;0.80;;;4.00;64.50;;;3.53;49.16;93815.72;5117619;28;20625;-19
2023/03/06 05:30:05;;;;;;;0.70;0.70;;;4.00;64.50;;;3.55;49.33;93812.94;5117488;27;20190;-18
2023/03/06 05:32:32;;;;;;;0.70;0.70;;;4.00;64.60;;;3.57;49.57;93818.75;5117338;28;20190;-18
2023/03/06 05:35:03;;;;;;;0.70;0.70;;;4.00;64.60;;;3.54;49.45;93819.91;5117390;28;20219;-18
2023/03/06 05:37:30;;;;;;;0.70;0.70;;;4.00;64.60;;;3.55;49.33;93816.31;5117488;28;20201;-19
2023/03/06 05:39:57;;;;;;;0.63;0.63;;;4.00;64.70;;;3.57;49.63;93813.56;5117297;28;20186;-19
2023/03/06 05:42:24;;;;;;;0.70;0.70;;;4.00;64.70;;;3.53;49.60;93813.13;5117206;28;20193;-19
2023/03/06 05:44:54;;;;;;;0.60;0.60;;;4.00;64.80;;;3.53;49.73;93813.91;5117173;28;20198;-19
2023/03/06 05:47:21;;;;;;;0.80;0.80;;;4.00;64.80;;;3.57;50.01;93819.56;5116952;28;20247;-19
2023/03/06 05:49:48;;;;;;;0.70;0.70;;;4.00;64.90;;;3.56;49.56;93811.97;5117074;28;20190;-18
2023/03/06 05:52:16;;;;;;;0.65;0.65;;;4.00;65.00;;;3.55;50.04;93802.56;5117047;28;20552;-19
2023/03/06 05:54:44;;;;;;;0.60;0.60;;;4.00;65.00;;;3.58;50.13;93815.19;5117199;28;20228;-18
2023/03/06 05:57:11;;;;;;;0.80;0.80;;;4.00;65.10;;;3.56;50.58;93806.78;5116090;28;20189;-20
2023/03/06 05:59:38;;;;;;;0.80;0.80;;;4.00;65.20;;;3.57;50.45;93805.78;5115946;28;20205;-19
2023/03/06 06:02:04;;;;;;;0.80;0.80;;;4.00;65.20;;;3.58;50.14;93807.41;5116817;28;20577;-18
2023/03/06 06:04:31;;;;;;;0.70;0.70;;;4.00;65.30;;;3.59;50.59;93809.00;5117334;28;20201;-19
2023/03/06 06:07:00;;;;;;;0.70;0.70;;;4.00;65.30;;;3.55;50.57;93807.75;5117011;28;20204;-19
2023/03/06 06:09:28;;;;;;;0.70;0.70;;;4.00;65.50;;;3.58;51.00;93807.41;5116634;28;20263;-18
2023/03/06 06:12:02;;;;;;;0.70;0.70;;;4.00;65.50;;;3.58;50.56;93818.56;5116898;27;20495;-18
2023/03/06 06:14:32;;;;;;;0.80;0.80;;;4.00;65.50;;;3.59;51.03;93811.59;5116932;28;20217;-18
2023/03/06 06:17:00;;;;;;;0.80;0.80;;;4.10;65.60;;;3.60;51.15;93823.56;5116740;28;20170;-19
2023/03/06 06:19:29;;;;;;;0.80;0.80;;;4.10;65.70;;;3.61;51.02;93820.00;5116375;28;20186;-18
2023/03/06 06:21:56;;;;;;;0.80;0.80;;;4.10;65.70;;;3.60;50.95;93813.19;5115705;28;20236;-18
2023/03/06 06:24:25;;;;;;;0.70;0.70;;;4.10;65.60;;;3.62;50.84;93812.03;5116369;28;20676;-19
2023/03/06 06:26:55;;;;;;;0.80;0.80;;;4.10;65.60;;;3.63;51.12;93820.66;5116359;28;20194;-19
2023/03/06 06:29:23;;;;;;;0.70;0.70;;;4.20;65.80;;;3.66;51.18;93815.91;5116479;27;20304;-18
2023/03/06 06:31:51;;;;;;;0.80;0.80;;;4.20;65.70;;;3.69;51.13;93815.53;5116482;28;20198;-19
2023/03/06 06:34:20;;;;;;;0.70;0.70;;;4.20;65.80;;;3.75;50.99;93821.00;5116184;28;20214;-18
2023/03/06 06:36:48;;;;;;;0.80;0.80;;;4.20;65.70;;;3.78;51.13;93818.88;5114561;28;20190;-18
2023/03/06 06:39:21;;;;;;;0.70;0.70;;;4.20;65.80;;;3.84;51.04;93819.94;5116112;28;20182;-19
2023/03/06 06:41:50;;;;;;;0.80;0.80;;;4.20;65.90;;;3.87;51.05;93811.84;5115261;28;20186;-18
2023/03/06 06:44:37;;;;;;;0.70;0.70;;;4.30;65.90;;;3.91;51.27;93810.47;5115775;28;20182;-19
2023/03/06 06:47:05;;;;;;;0.70;0.70;;;4.30;65.90;;;3.96;50.95;93823.72;5115061;28;20239;-18
2023/03/06 06:49:51;;;;;;;0.80;0.80;;;4.40;65.90;;;3.99;50.65;93819.97;5115908;28;20181;-18
2023/03/06 06:52:18;;;;;;;0.73;0.73;;;4.40;65.90;;;4.03;51.00;93804.84;5115960;28;20212;-18
2023/03/06 06:54:45;;;;;;;0.70;0.70;;;4.40;65.80;;;4.05;51.06;93815.84;5115879;27;20309;-19
2023/03/06 06:57:14;;;;;;;0.70;0.70;;;4.50;66.00;;;4.09;51.11;93815.31;5116121;28;20205;-19
2023/03/06 06:59:41;;;;;;;0.70;0.70;;;4.50;65.90;;;4.12;51.40;93809.75;5115040;28;20209;-18
2023/03/06 07:02:14;;;;;;;0.80;0.80;;;4.60;66.00;;;4.17;51.25;93809.22;5131813;27;20560;-18
2023/03/06 07:04:42;;;;;;;0.80;0.80;;;4.60;66.00;;;4.23;51.31;93805.91;5117027;28;20261;-19
2023/03/06 07:07:29;;;;;;;0.80;0.80;;;4.70;66.10;;;4.32;51.30;93810.03;5115995;28;20182;-18
2023/03/06 07:09:56;;;;;;;0.60;0.60;;;4.70;66.10;;;4.38;51.23;93799.91;5116208;28;20250;-18
2023/03/06 07:12:23;;;;;;;0.70;0.70;;;4.80;66.20;;;4.49;51.38;93813.25;5116903;28;20688;-18
2023/03/06 07:14:50;;;;;;;0.80;0.80;;;4.80;66.10;;;4.57;51.32;93807.13;5115913;28;20242;-20
2023/03/06 07:17:17;;;;;;;0.70;0.70;;;4.90;66.20;;;4.67;51.12;93809.44;5115598;28;20194;-19
2023/03/06 07:19:44;;;;;;;0.73;0.73;;;5.00;66.20;;;4.73;51.21;93803.50;5115962;28;20523;-18
2023/03/06 07:22:11;;;;;;;0.70;0.70;;;5.10;66.20;;;4.85;50.86;93810.84;5132312;27;20583;-18
2023/03/06 07:24:40;;;;;;;0.70;0.70;;;5.20;66.20;;;4.91;50.68;93812.72;5115942;28;20225;-19
2023/03/06 07:27:07;;;;;;;0.70;0.70;;;5.30;66.10;;;4.96;50.46;93813.75;5115747;28;20239;-19
2023/03/06 07:29:35;;;;;;;0.70;0.70;;;5.30;65.90;;;5.04;50.57;93814.63;5115401;28;20213;-18
2023/03/06 07:32:02;;;;;;;0.80;0.80;;;5.40;65.90;;;5.13;50.36;93813.53;5114814;28;20680;-19
2023/03/06 07:34:29;;;;;;;0.60;0.60;;;5.50;66.00;;;5.20;50.07;93814.41;5115437;28;20525;-19
2023/03/06 07:36:56;;;;;;;0.80;0.80;;;5.60;65.70;;;5.24;50.17;93809.63;5115574;28;20247;-19
2023/03/06 07:39:23;;;;;;;0.70;0.70;;;5.60;65.70;;;5.33;50.10;93811.09;5115445;28;20201;-22
2023/03/06 07:41:51;;;;;;;0.60;0.60;;;5.70;65.80;;;5.42;50.02;93809.97;5114494;28;20657;-19
2023/03/06 07:44:18;;;;;;;0.80;0.80;;;5.80;65.70;;;5.49;49.87;93809.22;5116112;28;20318;-19
2023/03/06 07:46:45;;;;;;;0.70;0.70;;;5.90;65.60;;;5.52;49.13;93798.47;5115582;28;20194;-18
2023/03/06 07:49:12;;;;;;;0.70;0.70;;;6.00;65.20;;;5.61;49.54;93800.75;5119452;28;20190;-19
2023/03/06 07:51:39;;;;;;;0.70;0.70;;;6.00;65.20;;;5.71;49.63;93799.59;5120043;28;20190;-19
2023/03/06 07:54:06;;;;;;;0.80;0.80;;;6.10;65.20;;;5.77;49.15;93806.63;5118820;28;20312;-19
2023/03/06 07:56:34;;;;;;;0.60;0.60;;;6.20;65.10;;;5.86;49.05;93809.91;5120254;28;20208;-18
2023/03/06 07:59:02;;;;;;;0.70;0.70;;;6.30;64.80;;;5.89;48.37;93799.13;5119638;28;20633;-18
2023/03/06 08:01:29;;;;;;;0.60;0.60;;;6.40;64.50;;;5.96;48.47;93802.56;5119561;28;20182;-18
2023/03/06 08:03:56;;;;;;;0.70;0.70;;;6.50;64.40;;;6.03;48.55;93807.84;5119561;28;20695;-20
2023/03/06 08:06:26;;;;;;;0.80;0.80;;;6.50;64.40;;;6.12;48.28;93816.31;5119664;28;20194;-21
2023/03/06 08:08:54;;;;;;;0.80;0.80;;;6.60;64.40;;;6.18;48.42;93812.94;5117976;28;20607;-29
2023/03/06 08:11:26;;;;;;;0.60;0.60;;;6.70;64.20;;;6.25;47.73;93806.78;5135082;27;20206;-19
2023/03/06 08:13:54;;;;;;;0.70;0.70;;;6.80;64.10;;;6.32;48.19;93806.78;5119128;28;20202;-19
2023/03/06 08:16:25;;;;;;;0.70;0.70;;;6.90;64.30;;;6.45;48.10;93800.84;5119194;28;20576;-30
2023/03/06 08:18:53;;;;;;;0.70;0.70;;;6.90;64.30;;;6.57;48.06;93807.13;5118317;28;20182;-19
2023/03/06 08:21:24;;;;;;;0.70;0.70;;;7.00;64.40;;;6.66;47.19;93805.16;5118215;28;20201;-19
2023/03/06 08:23:52;;;;;;;0.70;0.70;;;7.10;63.80;;;6.68;46.55;93799.75;5118147;28;20234;-18
2023/03/06 08:26:23;;;;;;;0.68;0.68;;;7.30;63.40;;;6.76;47.02;93796.97;5119743;28;20190;-19
2023/03/06 08:28:52;;;;;;;0.70;0.70;;;7.40;63.60;;;6.83;46.27;93791.78;5118879;27;20182;-25
2023/03/06 08:31:39;;;;;;;0.70;0.70;;;7.50;63.00;;;6.90;46.20;93795.22;5135182;27;20265;-19
2023/03/06 08:34:13;;;;;;;0.60;0.60;;;7.50;63.10;;;6.99;46.61;93791.41;5100934;28;20209;-20
2023/03/06 08:36:41;;;;;;;0.70;0.70;;;7.60;63.10;;;7.08;46.03;93801.66;5118913;27;20178;-18
2023/03/06 08:39:08;;;;;;;0.80;0.80;;;7.70;63.90;;;7.15;45.93;93799.88;5117770;28;20186;-21
2023/03/06 08:41:36;;;;;;;0.70;0.70;;;7.80;62.90;;;7.19;45.27;93803.72;5117994;28;20193;-18
2023/03/06 08:44:04;;;;;;;0.70;0.70;;;7.90;62.50;;;7.15;45.18;93792.88;5119091;28;20685;-18
2023/03/06 08:46:32;;;;;;;0.80;0.80;;;7.90;62.20;;;7.13;44.51;93788.81;5118690;28;20660;-19
2023/03/06 08:49:00;;;;;;;0.70;0.70;;;7.90;62.60;;;7.16;45.46;93794.44;5117595;28;20202;-19
2023/03/06 08:51:28;;;;;;;0.60;0.60;;;7.90;62.10;;;7.19;44.27;93785.44;5118415;27;20285;-18
2023/03/06 08:53:57;;;;;;;0.60;0.60;;;7.90;61.50;;;7.19;44.88;93790.66;5118694;28;20229;-18
2023/03/06 08:56:28;;;;;;;0.60;0.60;;;7.90;61.70;;;7.22;44.84;93779.81;5118571;28;20247;-19
2023/03/06 08:58:57;;;;;;;0.65;0.65;;;7.90;61.70;;;7.28;44.99;93784.25;5117553;28;20170;-19
2023/03/06 09:01:34;;;;;;;0.70;0.70;;;8.00;61.90;;;7.36;45.01;93783.22;5118228;28;20197;-19
2023/03/06 09:04:06;;;;;;;0.70;0.70;;;8.00;61.90;;;7.42;44.61;93784.25;5101795;28;20209;-19
2023/03/06 09:06:37;;;;;;;0.70;0.70;;;8.10;61.70;;;7.51;44.69;93786.47;5117567;28;20188;-18
2023/03/06 09:09:05;;;;;;;0.70;0.70;;;8.20;61.80;;;7.56;43.43;93780.66;5118382;27;20204;-19
2023/03/06 09:11:34;;;;;;;0.70;0.70;;;8.20;61.00;;;7.57;43.33;93784.06;5118148;28;20498;-19
2023/03/06 09:14:01;;;;;;;0.70;0.70;;;8.20;60.90;;;7.60;43.70;93781.84;5100546;28;20240;-19
2023/03/06 09:16:28;;;;;;;0.70;0.70;;;8.30;61.10;;;7.66;43.61;93781.03;5118207;28;20265;-18
2023/03/06 09:18:56;;;;;;;0.70;0.70;;;8.30;60.90;;;7.67;43.32;93769.59;5100254;28;20268;-19
2023/03/06 09:21:25;;;;;;;0.70;0.70;;;8.40;60.70;;;7.66;43.55;93773.19;5117808;28;20213;-19
2023/03/06 09:23:52;;;;;;;0.70;0.70;;;8.40;60.80;;;7.72;44.15;93774.22;5117743;28;20237;-18
2023/03/06 09:26:19;;;;;;;0.80;0.80;;;8.50;61.10;;;7.80;43.59;93766.19;5117173;27;20198;-18
2023/03/06 09:28:47;;;;;;;0.60;0.60;;;8.50;61.00;;;7.89;42.81;93781.66;5116824;27;20267;-18
2023/03/06 09:31:17;;;;;;;0.60;0.60;;;8.60;60.40;;;7.90;42.93;93768.38;5116482;28;20190;-18
2023/03/06 09:33:46;;;;;;;0.80;0.80;;;8.60;60.40;;;7.97;43.42;93763.94;5117620;28;20204;-18
2023/03/06 09:36:17;;;;;;;0.70;0.70;;;8.60;60.50;;;8.00;42.71;93773.19;5100293;28;20617;-18
2023/03/06 09:38:46;;;;;;;0.70;0.70;;;8.70;60.20;;;7.97;42.34;93761.34;5117330;28;20181;-18
2023/03/06 09:41:33;;;;;;;0.70;0.70;;;8.70;60.10;;;7.96;42.48;93770.16;5117511;28;20198;-18
2023/03/06 09:44:19;;;;;;;0.80;0.80;;;8.70;60.10;;;7.91;42.15;93767.38;5117590;28;20205;-18
2023/03/06 09:47:07;;;;;;;0.80;0.80;;;8.60;59.80;;;7.90;42.01;93765.78;5133765;27;20193;-36
2023/03/06 09:49:49;;;;;;;0.60;0.60;;;8.60;59.60;;;7.95;41.93;93781.63;5117561;28;20189;-18
2023/03/06 09:52:51;;;;;;;0.60;0.60;;;8.60;59.50;;;7.84;40.32;93771.81;5116449;28;20194;-18
2023/03/06 09:55:27;;;;;;;0.60;0.60;;;8.60;58.60;;;7.82;40.53;93784.25;5117550;28;20201;-18
2023/03/06 09:58:22;;;;;;;0.60;0.60;;;8.50;57.80;;;7.79;40.10;93775.00;5117369;28;20197;-20
2023/03/06 10:00:59;;;;;;;0.68;0.68;;;8.50;58.00;;;7.75;40.11;93783.44;5114103;28;20202;-34
2023/03/06 10:04:10;;;;;;;0.70;0.70;;;8.40;57.90;;;7.72;39.66;93778.66;5116425;28;20206;-18
2023/03/06 10:06:47;;;;;;;0.70;0.70;;;8.40;57.30;;;7.68;39.63;93773.81;5117271;28;20503;-21
2023/03/06 10:09:33;;;;;;;0.60;0.60;;;8.40;57.20;;;7.67;40.48;93780.03;5116213;28;20178;-18
2023/03/06 10:12:05;;;;;;;0.70;0.70;;;8.40;58.00;;;7.73;39.96;93770.59;5116173;28;20262;-18
2023/03/06 10:14:55;;;;;;;0.63;0.63;;;8.40;57.30;;;7.84;39.81;93777.03;5115843;28;20198;-18
2023/03/06 10:17:25;;;;;;;0.65;0.65;;;8.50;57.70;;;7.92;39.73;93769.00;5116934;28;20175;-18
2023/03/06 10:19:52;;;;;;;0.70;0.70;;;8.50;57.20;;;8.00;38.71;93768.75;5082254;28;20205;-18
2023/03/06 10:22:32;;;;;;;0.60;0.60;;;8.60;56.50;;;8.08;39.11;93769.53;5115896;28;20181;-18
2023/03/06 10:25:23;;;;;;;0.60;0.60;;;8.70;58.40;;;8.14;38.59;93774.75;5116620;27;20331;-18
2023/03/06 10:28:16;;;;;;;0.70;0.70;;;8.70;56.50;;;8.20;37.91;93774.94;5117359;28;20569;-18
2023/03/06 10:30:57;;;;;;;0.60;0.60;;;8.80;55.50;;;8.19;37.22;93774.16;5116716;28;20284;-19
2023/03/06 10:33:52;;;;;;;0.60;0.60;;;8.80;54.90;;;8.16;38.16;93774.56;5115984;28;20177;-19
2023/03/06 10:36:26;;;;;;;0.70;0.70;;;8.80;55.90;;;8.15;37.91;93765.09;5116781;28;20174;-18
2023/03/06 10:38:56;;;;;;;0.70;0.70;;;8.80;55.20;;;8.21;37.55;93766.91;5116767;28;20185;-18
2023/03/06 10:41:30;;;;;;;0.60;0.60;;;8.90;54.80;;;8.25;36.46;93764.69;5115360;28;20179;-18
2023/03/06 10:43:59;;;;;;;0.60;0.60;;;8.90;54.80;;;8.24;37.42;93768.28;5116609;28;20181;-18
2023/03/06 10:46:34;;;;;;;0.70;0.70;;;8.90;54.80;;;8.33;37.99;93756.63;5115984;28;20251;-18